sensor_id;sensor_type;location;lat;lon;timestamp;pressure;altitude;pressure_sealevel;temperature;humidity
68859;BME280;55864;49.238;8.092;2023-04-25T00:01:15;98815.59;;;10.20;68.36
68859;BME280;55864;49.238;8.092;2023-04-25T00:03:16;98807.72;;;10.20;68.49
68859;BME280;55864;49.238;8.092;2023-04-25T00:05:17;98808.50;;;10.20;68.34
68859;BME280;55864;49.238;8.092;2023-04-25T00:07:18;98803.94;;;10.22;68.42
68859;BME280;55864;49.238;8.092;2023-04-25T00:09:18;98810.97;;;10.22;68.13
68859;BME280;55864;49.238;8.092;2023-04-25T00:11:19;98803.78;;;10.24;68.30
68859;BME280;55864;49.238;8.092;2023-04-25T00:13:20;98798.53;;;10.24;68.61
68859;BME280;55864;49.238;8.092;2023-04-25T00:15:20;98796.72;;;10.24;69.09
68859;BME280;55864;49.238;8.092;2023-04-25T00:17:21;98796.56;;;10.26;69.03
68859;BME280;55864;49.238;8.092;2023-04-25T00:19:23;98799.06;;;10.27;69.39
68859;BME280;55864;49.238;8.092;2023-04-25T00:21:24;98796.44;;;10.27;69.07
68859;BME280;55864;49.238;8.092;2023-04-25T00:23:24;98801.16;;;10.24;68.78
68859;BME280;55864;49.238;8.092;2023-04-25T00:25:25;98806.41;;;10.24;69.20
68859;BME280;55864;49.238;8.092;2023-04-25T00:27:25;98801.16;;;10.24;69.45
68859;BME280;55864;49.238;8.092;2023-04-25T00:29:26;98807.06;;;10.26;69.66
68859;BME280;55864;49.238;8.092;2023-04-25T00:31:27;98811.34;;;10.27;69.32
68859;BME280;55864;49.238;8.092;2023-04-25T00:33:27;98800.34;;;10.23;69.75
68859;BME280;55864;49.238;8.092;2023-04-25T00:35:29;98807.72;;;10.20;69.91
68859;BME280;55864;49.238;8.092;2023-04-25T00:37:30;98809.50;;;10.19;69.88
68859;BME280;55864;49.238;8.092;2023-04-25T00:39:31;98805.22;;;10.18;70.20
68859;BME280;55864;49.238;8.092;2023-04-25T00:41:32;98797.34;;;10.18;70.10
68859;BME280;55864;49.238;8.092;2023-04-25T00:43:33;98799.97;;;10.18;70.52
68859;BME280;55864;49.238;8.092;2023-04-25T00:45:38;98792.41;;;10.15;70.76
68859;BME280;55864;49.238;8.092;2023-04-25T00:47:39;98798.50;;;10.16;70.81
68859;BME280;55864;49.238;8.092;2023-04-25T00:49:40;98792.41;;;10.15;70.79
68859;BME280;55864;49.238;8.092;2023-04-25T00:51:43;98794.69;;;10.10;70.85
68859;BME280;55864;49.238;8.092;2023-04-25T00:53:44;98791.09;;;10.11;70.38
68859;BME280;55864;49.238;8.092;2023-04-25T00:55:45;98790.25;;;10.11;70.90
68859;BME280;55864;49.238;8.092;2023-04-25T00:57:47;98790.41;;;10.09;71.05
68859;BME280;55864;49.238;8.092;2023-04-25T00:59:47;98793.31;;;10.06;70.86
68859;BME280;55864;49.238;8.092;2023-04-25T01:01:51;98797.31;;;10.10;71.11
68859;BME280;55864;49.238;8.092;2023-04-25T01:03:53;98780.88;;;10.08;70.68
68859;BME280;55864;49.238;8.092;2023-04-25T01:05:54;98788.88;;;10.07;71.04
68859;BME280;55864;49.238;8.092;2023-04-25T01:07:56;98798.88;;;10.03;71.12
68859;BME280;55864;49.238;8.092;2023-04-25T01:09:57;98799.19;;;10.00;71.17
68859;BME280;55864;49.238;8.092;2023-04-25T01:11:58;98803.59;;;10.00;71.33
68859;BME280;55864;49.238;8.092;2023-04-25T01:13:59;98797.69;;;9.98;71.97
68859;BME280;55864;49.238;8.092;2023-04-25T01:16:00;98797.84;;;9.96;71.92
68859;BME280;55864;49.238;8.092;2023-04-25T01:18:00;98802.75;;;9.91;72.57
68859;BME280;55864;49.238;8.092;2023-04-25T01:20:03;98794.50;;;9.86;72.79
68859;BME280;55864;49.238;8.092;2023-04-25T01:22:05;98796.31;;;9.86;72.63
68859;BME280;55864;49.238;8.092;2023-04-25T01:24:06;98808.59;;;9.85;72.79
68859;BME280;55864;49.238;8.092;2023-04-25T01:26:08;98801.03;;;9.82;73.16
68859;BME280;55864;49.238;8.092;2023-04-25T01:28:09;98794.97;;;9.82;73.60
68859;BME280;55864;49.238;8.092;2023-04-25T01:30:10;98798.88;;;9.78;73.59
68859;BME280;55864;49.238;8.092;2023-04-25T01:32:13;98796.94;;;9.80;73.52
68859;BME280;55864;49.238;8.092;2023-04-25T01:34:14;98798.03;;;9.77;73.44
68859;BME280;55864;49.238;8.092;2023-04-25T01:36:15;98797.09;;;9.78;73.40
68859;BME280;55864;49.238;8.092;2023-04-25T01:38:17;98787.88;;;9.74;74.59
68859;BME280;55864;49.238;8.092;2023-04-25T01:40:18;98795.59;;;9.76;74.66
68859;BME280;55864;49.238;8.092;2023-04-25T01:42:20;98792.28;;;9.74;74.12
68859;BME280;55864;49.238;8.092;2023-04-25T01:44:21;98796.03;;;9.71;74.33
68859;BME280;55864;49.238;8.092;2023-04-25T01:46:22;98809.13;;;9.71;74.46
68859;BME280;55864;49.238;8.092;2023-04-25T01:48:23;98797.03;;;9.70;74.87
68859;BME280;55864;49.238;8.092;2023-04-25T01:50:23;98807.19;;;9.73;75.07
68859;BME280;55864;49.238;8.092;2023-04-25T01:52:24;98798.03;;;9.52;75.96
68859;BME280;55864;49.238;8.092;2023-04-25T01:54:26;98799.47;;;9.46;75.47
68859;BME280;55864;49.238;8.092;2023-04-25T01:56:30;98796.91;;;9.36;74.75
68859;BME280;55864;49.238;8.092;2023-04-25T01:58:30;98794.75;;;9.32;74.75
68859;BME280;55864;49.238;8.092;2023-04-25T02:00:50;98794.44;;;9.17;75.74
68859;BME280;55864;49.238;8.092;2023-04-25T02:02:50;98807.09;;;9.22;75.40
68859;BME280;55864;49.238;8.092;2023-04-25T02:04:57;98803.06;;;9.10;75.55
68859;BME280;55864;49.238;8.092;2023-04-25T02:07:01;98798.41;;;9.04;76.68
68859;BME280;55864;49.238;8.092;2023-04-25T02:09:11;98801.38;;;9.09;76.67
68859;BME280;55864;49.238;8.092;2023-04-25T02:11:17;98797.50;;;9.13;77.65
68859;BME280;55864;49.238;8.092;2023-04-25T02:13:26;98796.91;;;9.19;78.14
68859;BME280;55864;49.238;8.092;2023-04-25T02:15:45;98796.59;;;9.22;77.86
68859;BME280;55864;49.238;8.092;2023-04-25T02:17:50;98794.50;;;9.25;78.19
68859;BME280;55864;49.238;8.092;2023-04-25T02:19:50;98785.84;;;9.25;77.88
68859;BME280;55864;49.238;8.092;2023-04-25T02:21:51;98789.81;;;9.29;77.73
68859;BME280;55864;49.238;8.092;2023-04-25T02:23:51;98792.44;;;9.29;78.47
68859;BME280;55864;49.238;8.092;2023-04-25T02:25:52;98788.81;;;9.30;78.71
68859;BME280;55864;49.238;8.092;2023-04-25T02:27:55;98787.19;;;9.29;78.55
68859;BME280;55864;49.238;8.092;2023-04-25T02:29:55;98778.06;;;9.33;77.86
68859;BME280;55864;49.238;8.092;2023-04-25T02:31:56;98791.16;;;9.33;77.54
68859;BME280;55864;49.238;8.092;2023-04-25T02:33:57;98788.81;;;9.30;77.61
68859;BME280;55864;49.238;8.092;2023-04-25T02:35:57;98785.53;;;9.28;77.82
68859;BME280;55864;49.238;8.092;2023-04-25T02:37:58;98792.56;;;9.27;78.55
68859;BME280;55864;49.238;8.092;2023-04-25T02:39:58;98789.13;;;9.27;78.66
68859;BME280;55864;49.238;8.092;2023-04-25T02:41:59;98789.25;;;9.25;77.90
68859;BME280;55864;49.238;8.092;2023-04-25T02:44:01;98794.97;;;9.21;78.50
68859;BME280;55864;49.238;8.092;2023-04-25T02:46:01;98786.13;;;9.22;78.48
68859;BME280;55864;49.238;8.092;2023-04-25T02:48:02;98784.50;;;9.21;78.14
68859;BME280;55864;49.238;8.092;2023-04-25T02:50:07;98788.63;;;9.23;77.57
68859;BME280;55864;49.238;8.092;2023-04-25T02:52:08;98787.38;;;9.18;78.26
68859;BME280;55864;49.238;8.092;2023-04-25T02:54:08;98781.50;;;9.16;78.49
68859;BME280;55864;49.238;8.092;2023-04-25T02:56:13;98783.13;;;9.17;78.74
68859;BME280;55864;49.238;8.092;2023-04-25T02:58:14;98771.53;;;9.19;78.72
68859;BME280;55864;49.238;8.092;2023-04-25T03:00:25;98776.09;;;9.17;77.90
68859;BME280;55864;49.238;8.092;2023-04-25T03:02:25;98779.53;;;9.18;77.50
68859;BME280;55864;49.238;8.092;2023-04-25T03:04:26;98777.38;;;9.13;77.45
68859;BME280;55864;49.238;8.092;2023-04-25T03:06:27;98777.38;;;9.13;77.78
68859;BME280;55864;49.238;8.092;2023-04-25T03:08:27;98772.81;;;9.15;78.09
68859;BME280;55864;49.238;8.092;2023-04-25T03:10:28;98776.03;;;9.09;77.12
68859;BME280;55864;49.238;8.092;2023-04-25T03:12:32;98776.19;;;9.08;77.86
68859;BME280;55864;49.238;8.092;2023-04-25T03:14:32;98776.63;;;9.03;78.26
68859;BME280;55864;49.238;8.092;2023-04-25T03:16:34;98779.38;;;9.02;77.82
68859;BME280;55864;49.238;8.092;2023-04-25T03:18:35;98778.03;;;8.98;77.79
68859;BME280;55864;49.238;8.092;2023-04-25T03:20:35;98776.25;;;8.98;77.36
68859;BME280;55864;49.238;8.092;2023-04-25T03:22:37;98773.09;;;8.95;77.71
68859;BME280;55864;49.238;8.092;2023-04-25T03:24:38;98774.75;;;8.96;77.05
68859;BME280;55864;49.238;8.092;2023-04-25T03:26:38;98779.59;;;8.91;77.71
68859;BME280;55864;49.238;8.092;2023-04-25T03:28:39;98774.38;;;8.91;77.31
68859;BME280;55864;49.238;8.092;2023-04-25T03:30:40;98776.47;;;8.87;77.42
68859;BME280;55864;49.238;8.092;2023-04-25T03:32:43;98782.66;;;8.86;78.56
68859;BME280;55864;49.238;8.092;2023-04-25T03:34:43;98780.34;;;8.83;78.04
68859;BME280;55864;49.238;8.092;2023-04-25T03:36:44;98775.78;;;8.85;77.97
68859;BME280;55864;49.238;8.092;2023-04-25T03:38:45;98771.22;;;8.87;78.51
68859;BME280;55864;49.238;8.092;2023-04-25T03:40:47;98778.94;;;8.89;78.69
68859;BME280;55864;49.238;8.092;2023-04-25T03:43:11;98773.69;;;8.89;78.33
68859;BME280;55864;49.238;8.092;2023-04-25T03:45:14;98776.59;;;8.86;78.81
68859;BME280;55864;49.238;8.092;2023-04-25T03:47:15;98770.25;;;8.88;78.15
68859;BME280;55864;49.238;8.092;2023-04-25T03:49:17;98769.28;;;8.89;78.37
68859;BME280;55864;49.238;8.092;2023-04-25T03:51:32;98766.13;;;8.86;78.41
68859;BME280;55864;49.238;8.092;2023-04-25T03:53:32;98772.19;;;8.86;78.61
68859;BME280;55864;49.238;8.092;2023-04-25T03:55:51;98762.22;;;8.90;78.34
68859;BME280;55864;49.238;8.092;2023-04-25T03:57:52;98767.34;;;8.91;78.16
68859;BME280;55864;49.238;8.092;2023-04-25T03:59:52;98772.28;;;8.94;77.92
68859;BME280;55864;49.238;8.092;2023-04-25T04:01:53;98762.63;;;8.95;77.29
68859;BME280;55864;49.238;8.092;2023-04-25T04:03:54;98765.63;;;9.00;78.26
68859;BME280;55864;49.238;8.092;2023-04-25T04:05:56;98756.81;;;9.01;77.72
68859;BME280;55864;49.238;8.092;2023-04-25T04:07:57;98757.31;;;9.04;78.23
68859;BME280;55864;49.238;8.092;2023-04-25T04:09:57;98745.66;;;8.99;77.23
68859;BME280;55864;49.238;8.092;2023-04-25T04:12:03;98757.75;;;8.82;76.20
68859;BME280;55864;49.238;8.092;2023-04-25T04:14:07;98748.84;;;8.75;77.04
68859;BME280;55864;49.238;8.092;2023-04-25T04:16:08;98760.09;;;8.85;77.01
68859;BME280;55864;49.238;8.092;2023-04-25T04:18:09;98765.22;;;8.77;75.49
68859;BME280;55864;49.238;8.092;2023-04-25T04:20:10;98770.09;;;8.90;75.60
68859;BME280;55864;49.238;8.092;2023-04-25T04:22:14;98768.22;;;8.82;73.51
68859;BME280;55864;49.238;8.092;2023-04-25T04:24:15;98782.66;;;8.69;75.06
68859;BME280;55864;49.238;8.092;2023-04-25T04:26:34;98770.56;;;8.58;76.97
68859;BME280;55864;49.238;8.092;2023-04-25T04:28:43;98770.28;;;8.61;77.71
68859;BME280;55864;49.238;8.092;2023-04-25T04:30:51;98770.81;;;8.65;78.01
68859;BME280;55864;49.238;8.092;2023-04-25T04:32:52;98770.63;;;8.76;78.56
68859;BME280;55864;49.238;8.092;2023-04-25T04:34:53;98770.84;;;8.82;78.57
68859;BME280;55864;49.238;8.092;2023-04-25T04:36:55;98775.63;;;8.87;77.92
68859;BME280;55864;49.238;8.092;2023-04-25T04:38:57;98774.53;;;8.89;77.94
68859;BME280;55864;49.238;8.092;2023-04-25T04:41:09;98774.75;;;8.96;78.27
68859;BME280;55864;49.238;8.092;2023-04-25T04:43:23;98785.63;;;9.01;78.02
68859;BME280;55864;49.238;8.092;2023-04-25T04:45:41;98780.38;;;9.01;77.34
68859;BME280;55864;49.238;8.092;2023-04-25T04:48:01;98785.63;;;9.01;76.78
68859;BME280;55864;49.238;8.092;2023-04-25T04:50:30;98777.88;;;8.99;76.60
68859;BME280;55864;49.238;8.092;2023-04-25T04:53:07;98778.88;;;8.98;77.54
68859;BME280;55864;49.238;8.092;2023-04-25T04:55:28;98776.94;;;9.00;78.91
68859;BME280;55864;49.238;8.092;2023-04-25T04:57:40;98778.41;;;9.03;78.26
68859;BME280;55864;49.238;8.092;2023-04-25T04:59:59;98776.19;;;9.08;78.65
68859;BME280;55864;49.238;8.092;2023-04-25T05:02:18;98783.38;;;9.06;78.17
68859;BME280;55864;49.238;8.092;2023-04-25T05:04:19;98782.63;;;9.13;78.68
68859;BME280;55864;49.238;8.092;2023-04-25T05:06:31;98786.19;;;9.12;78.69
68859;BME280;55864;49.238;8.092;2023-04-25T05:08:58;98791.31;;;9.14;78.25
68859;BME280;55864;49.238;8.092;2023-04-25T05:11:23;98792.41;;;9.11;78.07
68859;BME280;55864;49.238;8.092;2023-04-25T05:13:49;98792.56;;;9.10;77.24
68859;BME280;55864;49.238;8.092;2023-04-25T05:16:11;98796.97;;;9.09;77.74
68859;BME280;55864;49.238;8.092;2023-04-25T05:18:33;98790.69;;;9.20;77.79
68859;BME280;55864;49.238;8.092;2023-04-25T05:20:39;98791.75;;;9.27;78.23
68859;BME280;55864;49.238;8.092;2023-04-25T05:22:55;98787.47;;;9.26;77.07
68859;BME280;55864;49.238;8.092;2023-04-25T05:25:28;98795.19;;;9.27;77.04
68859;BME280;55864;49.238;8.092;2023-04-25T05:27:36;98795.19;;;9.27;76.84
68859;BME280;55864;49.238;8.092;2023-04-25T05:29:56;98794.22;;;9.28;77.84
68859;BME280;55864;49.238;8.092;2023-04-25T05:32:00;98801.66;;;9.33;77.09
68859;BME280;55864;49.238;8.092;2023-04-25T05:34:01;98800.34;;;9.37;77.26
68859;BME280;55864;49.238;8.092;2023-04-25T05:36:13;98803.28;;;9.34;76.80
68859;BME280;55864;49.238;8.092;2023-04-25T05:38:14;98805.59;;;9.37;76.46
68859;BME280;55864;49.238;8.092;2023-04-25T05:40:33;98809.19;;;9.36;76.44
68859;BME280;55864;49.238;8.092;2023-04-25T05:42:47;98812.16;;;9.41;76.19
68859;BME280;55864;49.238;8.092;2023-04-25T05:45:02;98820.03;;;9.41;77.08
68859;BME280;55864;49.238;8.092;2023-04-25T05:47:13;98817.13;;;9.44;76.81
68859;BME280;55864;49.238;8.092;2023-04-25T05:49:31;98830.38;;;9.42;77.21
68859;BME280;55864;49.238;8.092;2023-04-25T05:51:58;98830.25;;;9.44;77.70
68859;BME280;55864;49.238;8.092;2023-04-25T05:54:16;98835.47;;;9.44;78.17
68859;BME280;55864;49.238;8.092;2023-04-25T05:56:16;98836.97;;;9.46;78.33
68859;BME280;55864;49.238;8.092;2023-04-25T05:58:18;98830.91;;;9.46;78.75
68859;BME280;55864;49.238;8.092;2023-04-25T06:00:19;98837.63;;;9.48;79.39
68859;BME280;55864;49.238;8.092;2023-04-25T06:02:23;98837.47;;;9.50;78.86
68859;BME280;55864;49.238;8.092;2023-04-25T06:04:25;98840.66;;;9.54;79.04
68859;BME280;55864;49.238;8.092;2023-04-25T06:06:25;98825.72;;;9.54;79.19
68859;BME280;55864;49.238;8.092;2023-04-25T06:08:26;98834.94;;;9.58;78.89
68859;BME280;55864;49.238;8.092;2023-04-25T06:10:26;98837.94;;;9.63;79.04
68859;BME280;55864;49.238;8.092;2023-04-25T06:12:27;98833.22;;;9.67;79.15
68859;BME280;55864;49.238;8.092;2023-04-25T06:14:29;98839.50;;;9.56;80.20
68859;BME280;55864;49.238;8.092;2023-04-25T06:16:30;98837.94;;;9.45;78.74
68859;BME280;55864;49.238;8.092;2023-04-25T06:18:30;98839.19;;;9.24;78.68
68859;BME280;55864;49.238;8.092;2023-04-25T06:20:31;98841.31;;;9.20;79.35
68859;BME280;55864;49.238;8.092;2023-04-25T06:22:34;98842.41;;;9.18;78.91
68859;BME280;55864;49.238;8.092;2023-04-25T06:24:34;98834.56;;;9.35;79.62
68859;BME280;55864;49.238;8.092;2023-04-25T06:26:37;98843.34;;;9.44;79.75
68859;BME280;55864;49.238;8.092;2023-04-25T06:28:38;98839.47;;;9.48;79.80
68859;BME280;55864;49.238;8.092;2023-04-25T06:30:40;98843.56;;;9.50;79.67
68859;BME280;55864;49.238;8.092;2023-04-25T06:32:45;98840.50;;;9.55;78.50
68859;BME280;55864;49.238;8.092;2023-04-25T06:34:46;98836.22;;;9.36;78.41
68859;BME280;55864;49.238;8.092;2023-04-25T06:36:46;98838.53;;;9.22;78.35
68859;BME280;55864;49.238;8.092;2023-04-25T06:38:50;98837.91;;;9.10;78.88
68859;BME280;55864;49.238;8.092;2023-04-25T06:40:51;98853.84;;;8.99;79.28
68859;BME280;55864;49.238;8.092;2023-04-25T06:42:53;98844.78;;;8.94;80.43
68859;BME280;55864;49.238;8.092;2023-04-25T06:45:12;98856.50;;;8.90;80.56
68859;BME280;55864;49.238;8.092;2023-04-25T06:47:14;98854.34;;;8.85;80.62
68859;BME280;55864;49.238;8.092;2023-04-25T06:49:16;98853.25;;;8.78;80.05
68859;BME280;55864;49.238;8.092;2023-04-25T06:51:17;98860.38;;;8.68;80.89
68859;BME280;55864;49.238;8.092;2023-04-25T06:53:18;98856.91;;;8.68;81.68
68859;BME280;55864;49.238;8.092;2023-04-25T06:55:22;98865.34;;;8.62;81.98
68859;BME280;55864;49.238;8.092;2023-04-25T06:57:42;98859.72;;;8.57;82.49
68859;BME280;55864;49.238;8.092;2023-04-25T07:00:04;98865.69;;;8.49;81.69
68859;BME280;55864;49.238;8.092;2023-04-25T07:02:05;98867.50;;;8.39;81.56
68859;BME280;55864;49.238;8.092;2023-04-25T07:04:07;98866.78;;;8.46;81.45
68859;BME280;55864;49.238;8.092;2023-04-25T07:06:12;98869.91;;;8.60;80.35
68859;BME280;55864;49.238;8.092;2023-04-25T07:08:13;98862.31;;;8.66;81.20
68859;BME280;55864;49.238;8.092;2023-04-25T07:10:14;98869.69;;;8.43;80.87
68859;BME280;55864;49.238;8.092;2023-04-25T07:12:14;98878.09;;;8.47;81.81
68859;BME280;55864;49.238;8.092;2023-04-25T07:14:15;98882.66;;;8.35;82.99
68859;BME280;55864;49.238;8.092;2023-04-25T07:16:16;98884.22;;;8.28;83.56
68859;BME280;55864;49.238;8.092;2023-04-25T07:18:17;98881.16;;;8.33;84.60
68859;BME280;55864;49.238;8.092;2023-04-25T07:20:19;98885.41;;;8.43;84.55
68859;BME280;55864;49.238;8.092;2023-04-25T07:22:20;98883.63;;;8.44;83.72
68859;BME280;55864;49.238;8.092;2023-04-25T07:24:20;98886.13;;;8.36;85.20
68859;BME280;55864;49.238;8.092;2023-04-25T07:26:22;98883.50;;;8.36;85.80
68859;BME280;55864;49.238;8.092;2023-04-25T07:28:43;98883.22;;;8.29;85.86
68859;BME280;55864;49.238;8.092;2023-04-25T07:30:44;98885.00;;;8.29;86.06
68859;BME280;55864;49.238;8.092;2023-04-25T07:32:44;98888.06;;;8.24;86.40
68859;BME280;55864;49.238;8.092;2023-04-25T07:34:45;98889.97;;;8.22;87.07
68859;BME280;55864;49.238;8.092;2023-04-25T07:36:47;98880.59;;;8.20;86.39
68859;BME280;55864;49.238;8.092;2023-04-25T07:38:48;98892.19;;;8.17;86.96
68859;BME280;55864;49.238;8.092;2023-04-25T07:40:49;98892.31;;;8.16;86.08
68859;BME280;55864;49.238;8.092;2023-04-25T07:42:50;98893.44;;;8.13;86.24
68859;BME280;55864;49.238;8.092;2023-04-25T07:44:57;98896.84;;;8.14;85.70
68859;BME280;55864;49.238;8.092;2023-04-25T07:46:57;98900.44;;;8.13;85.21
68859;BME280;55864;49.238;8.092;2023-04-25T07:48:58;98902.91;;;8.14;86.09
68859;BME280;55864;49.238;8.092;2023-04-25T07:50:59;98909.13;;;8.13;86.47
68859;BME280;55864;49.238;8.092;2023-04-25T07:53:01;98908.28;;;8.22;85.44
68859;BME280;55864;49.238;8.092;2023-04-25T07:55:10;98909.66;;;8.36;84.89
68859;BME280;55864;49.238;8.092;2023-04-25T07:57:34;98913.88;;;8.46;84.43
68859;BME280;55864;49.238;8.092;2023-04-25T07:59:36;98914.16;;;8.53;85.10
68859;BME280;55864;49.238;8.092;2023-04-25T08:01:37;98924.34;;;8.56;84.86
68859;BME280;55864;49.238;8.092;2023-04-25T08:03:40;98927.06;;;8.64;85.77
68859;BME280;55864;49.238;8.092;2023-04-25T08:05:47;98927.03;;;8.74;85.74
68859;BME280;55864;49.238;8.092;2023-04-25T08:07:49;98934.84;;;8.83;85.69
68859;BME280;55864;49.238;8.092;2023-04-25T08:09:52;98938.00;;;8.87;86.45
68859;BME280;55864;49.238;8.092;2023-04-25T08:12:06;98938.69;;;8.89;85.76
68859;BME280;55864;49.238;8.092;2023-04-25T08:14:07;98944.59;;;8.91;85.72
68859;BME280;55864;49.238;8.092;2023-04-25T08:16:09;98951.25;;;8.85;86.42
68859;BME280;55864;49.238;8.092;2023-04-25T08:18:10;98958.72;;;8.71;83.71
68859;BME280;55864;49.238;8.092;2023-04-25T08:20:11;98959.03;;;8.68;82.62
68859;BME280;55864;49.238;8.092;2023-04-25T08:22:12;98959.72;;;8.60;81.71
68859;BME280;55864;49.238;8.092;2023-04-25T08:24:23;98967.91;;;8.47;81.10
68859;BME280;55864;49.238;8.092;2023-04-25T08:26:25;98971.63;;;8.45;81.42
68859;BME280;55864;49.238;8.092;2023-04-25T08:28:26;98981.94;;;8.46;82.29
68859;BME280;55864;49.238;8.092;2023-04-25T08:30:26;98975.84;;;8.55;82.32
68859;BME280;55864;49.238;8.092;2023-04-25T08:32:28;98985.63;;;8.63;82.37
68859;BME280;55864;49.238;8.092;2023-04-25T08:34:49;98990.56;;;8.76;82.67
68859;BME280;55864;49.238;8.092;2023-04-25T08:36:49;98986.16;;;8.76;82.96
68859;BME280;55864;49.238;8.092;2023-04-25T08:38:57;98988.19;;;8.82;83.21
68859;BME280;55864;49.238;8.092;2023-04-25T08:40:59;98992.03;;;8.88;83.23
68859;BME280;55864;49.238;8.092;2023-04-25T08:43:02;98996.78;;;8.65;82.67
68859;BME280;55864;49.238;8.092;2023-04-25T08:45:04;99002.31;;;8.62;83.08
68859;BME280;55864;49.238;8.092;2023-04-25T08:47:08;99004.22;;;8.60;82.29
68859;BME280;55864;49.238;8.092;2023-04-25T08:49:18;99003.81;;;8.74;81.96
68859;BME280;55864;49.238;8.092;2023-04-25T08:51:22;99004.50;;;8.76;81.96
68859;BME280;55864;49.238;8.092;2023-04-25T08:53:27;99005.28;;;8.77;81.87
68859;BME280;55864;49.238;8.092;2023-04-25T08:55:28;99005.44;;;8.75;81.85
68859;BME280;55864;49.238;8.092;2023-04-25T08:57:33;99017.19;;;8.62;82.05
68859;BME280;55864;49.238;8.092;2023-04-25T08:59:36;99026.03;;;8.51;82.62
68859;BME280;55864;49.238;8.092;2023-04-25T09:01:37;99022.31;;;8.44;83.83
68859;BME280;55864;49.238;8.092;2023-04-25T09:03:38;99027.13;;;8.48;83.48
68859;BME280;55864;49.238;8.092;2023-04-25T09:05:40;99033.75;;;8.43;82.95
68859;BME280;55864;49.238;8.092;2023-04-25T09:07:41;99030.13;;;8.53;83.53
68859;BME280;55864;49.238;8.092;2023-04-25T09:09:42;99031.25;;;8.61;83.09
68859;BME280;55864;49.238;8.092;2023-04-25T09:11:43;99039.66;;;8.54;83.02
68859;BME280;55864;49.238;8.092;2023-04-25T09:13:46;99040.66;;;8.44;83.72
68859;BME280;55864;49.238;8.092;2023-04-25T09:15:59;99043.38;;;8.42;83.35
68859;BME280;55864;49.238;8.092;2023-04-25T09:18:27;99041.19;;;8.38;83.33
68859;BME280;55864;49.238;8.092;2023-04-25T09:20:28;99053.03;;;8.51;83.97
68859;BME280;55864;49.238;8.092;2023-04-25T09:22:29;99052.75;;;8.54;83.96
68859;BME280;55864;49.238;8.092;2023-04-25T09:24:35;99053.56;;;8.65;85.17
68859;BME280;55864;49.238;8.092;2023-04-25T09:26:38;99059.88;;;8.72;84.69
68859;BME280;55864;49.238;8.092;2023-04-25T09:28:47;99057.97;;;8.74;84.10
68859;BME280;55864;49.238;8.092;2023-04-25T09:30:55;99060.13;;;8.78;84.60
68859;BME280;55864;49.238;8.092;2023-04-25T09:33:06;99060.25;;;8.86;84.69
68859;BME280;55864;49.238;8.092;2023-04-25T09:35:07;99066.47;;;8.95;83.58
68859;BME280;55864;49.238;8.092;2023-04-25T09:37:10;99075.69;;;8.99;84.29
68859;BME280;55864;49.238;8.092;2023-04-25T09:39:33;99071.16;;;9.01;83.56
68859;BME280;55864;49.238;8.092;2023-04-25T09:41:41;99078.16;;;9.00;83.28
68859;BME280;55864;49.238;8.092;2023-04-25T09:43:45;99073.88;;;8.99;82.85
68859;BME280;55864;49.238;8.092;2023-04-25T09:45:45;99075.25;;;9.03;82.49
68859;BME280;55864;49.238;8.092;2023-04-25T09:47:46;99082.97;;;9.05;82.84
68859;BME280;55864;49.238;8.092;2023-04-25T09:49:52;99082.69;;;9.08;83.21
68859;BME280;55864;49.238;8.092;2023-04-25T09:51:54;99089.31;;;9.12;82.88
68859;BME280;55864;49.238;8.092;2023-04-25T09:53:55;99086.81;;;9.10;83.05
68859;BME280;55864;49.238;8.092;2023-04-25T09:56:16;99097.44;;;9.09;82.16
68859;BME280;55864;49.238;8.092;2023-04-25T09:58:17;99096.88;;;9.15;82.42
68859;BME280;55864;49.238;8.092;2023-04-25T10:00:19;99101.00;;;9.17;83.07
68859;BME280;55864;49.238;8.092;2023-04-25T10:02:21;99105.81;;;9.22;83.23
68859;BME280;55864;49.238;8.092;2023-04-25T10:04:28;99106.78;;;9.21;81.93
68859;BME280;55864;49.238;8.092;2023-04-25T10:06:51;99114.91;;;9.18;82.59
68859;BME280;55864;49.238;8.092;2023-04-25T10:08:53;99107.13;;;8.99;83.08
68859;BME280;55864;49.238;8.092;2023-04-25T10:10:53;99116.94;;;8.87;84.20
68859;BME280;55864;49.238;8.092;2023-04-25T10:12:54;99115.69;;;9.01;83.47
68859;BME280;55864;49.238;8.092;2023-04-25T10:14:55;99123.56;;;8.91;83.51
68859;BME280;55864;49.238;8.092;2023-04-25T10:16:57;99133.34;;;8.80;83.25
68859;BME280;55864;49.238;8.092;2023-04-25T10:18:58;99124.09;;;8.95;83.72
68859;BME280;55864;49.238;8.092;2023-04-25T10:21:00;99133.56;;;9.05;84.53
68859;BME280;55864;49.238;8.092;2023-04-25T10:23:11;99132.03;;;9.12;83.10
68859;BME280;55864;49.238;8.092;2023-04-25T10:25:13;99141.97;;;9.18;82.51
68859;BME280;55864;49.238;8.092;2023-04-25T10:27:14;99141.13;;;9.18;81.91
68859;BME280;55864;49.238;8.092;2023-04-25T10:29:22;99138.66;;;9.16;82.04
68859;BME280;55864;49.238;8.092;2023-04-25T10:31:22;99141.00;;;9.19;82.65
68859;BME280;55864;49.238;8.092;2023-04-25T10:33:29;99139.06;;;9.21;82.26
68859;BME280;55864;49.238;8.092;2023-04-25T10:35:30;99142.38;;;9.23;82.35
68859;BME280;55864;49.238;8.092;2023-04-25T10:37:30;99143.72;;;9.27;81.34
68859;BME280;55864;49.238;8.092;2023-04-25T10:39:32;99138.94;;;9.23;80.36
68859;BME280;55864;49.238;8.092;2023-04-25T10:41:45;99146.22;;;9.29;80.75
68859;BME280;55864;49.238;8.092;2023-04-25T10:43:47;99140.53;;;9.33;80.83
68859;BME280;55864;49.238;8.092;2023-04-25T10:45:51;99138.75;;;9.34;80.76
68859;BME280;55864;49.238;8.092;2023-04-25T10:47:52;99143.84;;;9.35;80.62
68859;BME280;55864;49.238;8.092;2023-04-25T10:49:52;99140.69;;;9.32;79.77
68859;BME280;55864;49.238;8.092;2023-04-25T10:52:10;99145.13;;;9.22;81.10
68859;BME280;55864;49.238;8.092;2023-04-25T10:54:11;99153.59;;;9.06;81.52
68859;BME280;55864;49.238;8.092;2023-04-25T10:56:16;99145.84;;;8.95;79.69
68859;BME280;55864;49.238;8.092;2023-04-25T10:58:21;99142.16;;;8.88;80.34
68859;BME280;55864;49.238;8.092;2023-04-25T11:00:23;99142.84;;;8.81;79.32
68859;BME280;55864;49.238;8.092;2023-04-25T11:02:26;99147.53;;;8.68;78.64
68859;BME280;55864;49.238;8.092;2023-04-25T11:04:29;99147.94;;;8.73;80.45
68859;BME280;55864;49.238;8.092;2023-04-25T11:06:31;99145.91;;;8.67;81.94
68859;BME280;55864;49.238;8.092;2023-04-25T11:08:45;99143.97;;;8.69;83.46